This is the latest recevied weather packets stored in our database for station/object KC4JY. If no packets are shown the sender has not sent any weather packets the latest 1 day(s).
| Time | Temp. | Humidity | Pressure | Rain* | Wind** | Luminosity | Snow |
|---|---|---|---|---|---|---|---|
| 1778006701 | 25.56° C | 45% | 1016.5 hPa | 0 mm | 3.58 m/s, 209° | - | - |
| 1778005852 | 25° C | 50% | 1016.7 hPa | 0 mm | 2.24 m/s, 208° | - | - |
| 1778004941 | 25° C | 51% | 1016.7 hPa | 0 mm | 1.79 m/s, 217° | - | - |
| 1778004024 | 25° C | 52% | 1016.9 hPa | 0 mm | 2.24 m/s, 189° | - | - |
| 1778003123 | 24.44° C | 51% | 1016.9 hPa | 0 mm | 3.58 m/s, 213° | - | - |
| 1778002203 | 25° C | 49% | 1016.9 hPa | 0 mm | 2.24 m/s, 234° | - | - |
| 1778001360 | 25° C | 50% | 1016.9 hPa | 0 mm | 3.58 m/s, 229° | - | - |
| 1778000442 | 24.44° C | 53% | 1017 hPa | 0 mm | 4.02 m/s, 224° | - | - |
| 1777999540 | 24.44° C | 53% | 1017.1 hPa | 0 mm | 3.13 m/s, 219° | - | - |
| 1777998620 | 23.89° C | 53% | 1017.4 hPa | 0 mm | 4.02 m/s, 246° | - | - |
| 1777997719 | 23.89° C | 54% | 1017.6 hPa | 0 mm | 4.47 m/s, 213° | - | - |
| 1777996857 | 23.33° C | 54% | 1017.8 hPa | 0 mm | 4.92 m/s, 241° | - | - |
| 1777995957 | 23.33° C | 53% | 1017.9 hPa | 0 mm | 4.47 m/s, 237° | - | - |
| 1777995036 | 22.78° C | 56% | 1017.9 hPa | 0 mm | 4.47 m/s, 224° | - | - |
| 1777994131 | 22.78° C | 55% | 1017.9 hPa | 0 mm | 4.47 m/s, 269° | - | - |
| 1777993211 | 22.22° C | 58% | 1017.9 hPa | 0 mm | 3.58 m/s, 247° | - | - |
| 1777992307 | 22.22° C | 60% | 1017.9 hPa | 0 mm | 3.58 m/s, 288° | - | - |
| 1777991446 | 21.67° C | 61% | 1018.1 hPa | 0 mm | 4.47 m/s, 229° | - | - |
| 1777990544 | 21.11° C | 63% | 1018.1 hPa | 0 mm | 4.47 m/s, 246° | - | - |
| 1777989629 | 20.56° C | 65% | 1017.9 hPa | 0 mm | 5.81 m/s, 214° | - | - |
| 1777988735 | 20.56° C | 67% | 1017.9 hPa | 0 mm | 4.92 m/s, 252° | - | - |
| 1777987876 | 19.44° C | 72% | 1018.1 hPa | 0 mm | 3.58 m/s, 240° | - | - |
| 1777986969 | 18.89° C | 72% | 1018.1 hPa | 0 mm | 3.13 m/s, 246° | - | - |
| 1777986039 | 18.33° C | 76% | 1018.2 hPa | 0 mm | 2.68 m/s, 257° | - | - |
| 1777985136 | 17.78° C | 76% | 1018.1 hPa | 0 mm | 3.58 m/s, 221° | - | - |
* Rain latest hour (hover to see other rain measurements)
** Current wind speed in m/s (hover to see current wind gust speed)